Time;durP1;ratioP1;P1;durP2;ratioP2;P2;SDS_P1;SDS_P2;PMS_P1;PMS_P2;Temp;Humidity;BMP_temperature;BMP_pressure;BME280_temperature;BME280_humidity;BME280_pressure;Samples;Min_cycle;Max_cycle;Signal;HPM_P1;HPM_P2
2021/09/04 00:02:39;;;;;;;9.93;6.18;;;;;;;14.05;62.92;100073.78;10399722;28;20458;-80
2021/09/04 00:07:41;;;;;;;10.98;6.85;;;;;;;13.94;62.93;100071.94;10400413;28;20049;-80
2021/09/04 00:12:43;;;;;;;9.45;6.50;;;;;;;13.74;63.27;100081.22;10400210;28;20061;-80
2021/09/04 00:17:45;;;;;;;12.25;7.40;;;;;;;13.75;63.35;100079.44;10398760;28;20149;-82
2021/09/04 00:22:47;;;;;;;10.18;6.85;;;;;;;13.75;63.34;100074.19;10400000;28;20149;-82
2021/09/04 00:27:49;;;;;;;9.48;6.82;;;;;;;13.71;63.32;100080.59;10397141;28;20128;-82
2021/09/04 00:32:50;;;;;;;11.80;6.70;;;;;;;13.62;63.21;100078.59;10398047;28;20089;-82
2021/09/04 00:37:52;;;;;;;12.63;7.05;;;;;;;13.62;63.47;100078.59;10398160;28;20103;-82
2021/09/04 00:42:54;;;;;;;12.95;6.97;;;;;;;13.59;63.31;100078.84;10397847;28;20093;-82
2021/09/04 00:47:57;;;;;;;9.48;7.10;;;;;;;13.34;63.62;100073.56;10399370;28;20049;-82
2021/09/04 00:53:00;;;;;;;16.60;7.68;;;;;;;13.35;63.90;100064.75;10399905;28;20095;-82
2021/09/04 00:58:02;;;;;;;9.50;7.00;;;;;;;13.35;63.87;100067.38;10404393;28;20077;-82
2021/09/04 01:03:03;;;;;;;9.55;7.30;;;;;;;13.17;64.13;100061.56;10399702;28;21239;-82
2021/09/04 01:08:36;;;;;;;9.48;7.18;;;;;;;13.07;64.54;100060.50;10397999;28;20140;-82
2021/09/04 01:13:38;;;;;;;13.75;7.85;;;;;;;12.78;64.38;100062.47;10397454;28;20065;-82
2021/09/04 01:18:40;;;;;;;9.63;6.80;;;;;;;12.80;64.47;100060.59;10397793;28;20061;-82
2021/09/04 01:23:42;;;;;;;9.57;6.57;;;;;;;12.98;64.23;100058.53;10398352;28;20159;-82
2021/09/04 01:28:44;;;;;;;9.77;7.22;;;;;;;13.08;63.74;100074.50;10398551;28;20168;-82
2021/09/04 01:33:45;;;;;;;10.52;7.03;;;;;;;13.07;63.85;100075.44;10396103;28;20057;-82
2021/09/04 01:38:47;;;;;;;10.18;6.45;;;;;;;13.01;64.09;100081.09;10397669;28;20104;-82
2021/09/04 01:43:50;;;;;;;9.55;7.10;;;;;;;12.98;63.70;100082.16;10396396;28;20466;-82
2021/09/04 01:48:52;;;;;;;12.00;6.88;;;;;;;12.90;63.90;100076.59;10398123;28;20062;-82
2021/09/04 01:53:54;;;;;;;12.93;8.00;;;;;;;12.68;63.85;100068.47;10404725;28;20086;-82
2021/09/04 01:58:56;;;;;;;12.00;7.82;;;;;;;12.68;64.67;100069.28;10424857;28;20058;-82
2021/09/04 02:03:57;;;;;;;14.15;7.43;;;;;;;12.74;64.28;100068.88;10408266;28;20049;-82
2021/09/04 02:08:59;;;;;;;10.07;6.95;;;;;;;12.72;64.18;100062.88;10401517;28;20595;-82
2021/09/04 02:14:01;;;;;;;11.27;6.78;;;;;;;12.72;64.10;100056.81;10401131;28;20061;-82
2021/09/04 02:19:03;;;;;;;10.35;7.28;;;;;;;12.73;63.92;100064.56;10401636;28;20053;-82
2021/09/04 02:24:05;;;;;;;10.77;6.82;;;;;;;12.66;63.93;100065.09;10400066;28;20637;-82
2021/09/04 02:29:06;;;;;;;13.88;7.90;;;;;;;12.48;64.46;100056.63;10400196;28;20061;-82
2021/09/04 02:34:09;;;;;;;12.20;7.70;;;;;;;12.47;64.26;100048.88;10399631;28;20085;-82
2021/09/04 02:39:11;;;;;;;9.20;6.57;;;;;;;12.47;64.32;100054.97;10400732;28;20097;-82
2021/09/04 02:44:13;;;;;;;8.93;6.90;;;;;;;12.52;64.06;100058.09;10402573;28;20140;-82
2021/09/04 02:49:15;;;;;;;11.60;7.38;;;;;;;12.50;63.70;100054.75;10407376;28;20593;-82
2021/09/04 02:54:16;;;;;;;15.70;8.55;;;;;;;12.42;64.17;100048.31;10407583;28;20061;-82
2021/09/04 02:59:18;;;;;;;36.60;9.60;;;;;;;12.31;64.31;100043.78;10408767;28;20146;-82
2021/09/04 03:04:20;;;;;;;12.88;7.93;;;;;;;12.25;64.54;100040.69;10404814;28;20065;-82
2021/09/04 03:09:21;;;;;;;10.88;7.53;;;;;;;12.25;64.55;100038.06;10403253;28;20165;-82
2021/09/04 03:14:23;;;;;;;8.98;7.40;;;;;;;12.22;64.67;100039.09;10401203;28;20148;-82
2021/09/04 03:19:25;;;;;;;10.90;7.47;;;;;;;12.25;64.35;100035.44;10400600;28;20081;-82
2021/09/04 03:24:27;;;;;;;14.43;8.10;;;;;;;12.16;64.56;100039.50;10400827;28;20061;-82
2021/09/04 03:29:28;;;;;;;192.00;17.92;;;;;;;11.88;64.27;100034.34;10401953;28;20053;-82
2021/09/04 03:34:30;;;;;;;558.08;33.47;;;;;;;11.45;65.12;100030.94;10400900;28;20065;-82
2021/09/04 03:39:33;;;;;;;18.27;9.80;;;;;;;11.46;65.82;100032.59;10400606;28;20143;-83
2021/09/04 03:44:35;;;;;;;480.40;26.63;;;;;;;11.22;65.58;100037.59;10399712;28;20522;-82
2021/09/04 03:49:37;;;;;;;10.48;7.75;;;;;;;11.21;65.98;100038.50;10399442;28;20396;-82
2021/09/04 03:54:39;;;;;;;8.68;7.25;;;;;;;11.35;65.61;100042.91;10401287;28;20158;-82
2021/09/04 03:59:41;;;;;;;14.90;7.65;;;;;;;11.50;65.48;100038.53;10402053;28;20429;-82
2021/09/04 04:04:43;;;;;;;20.33;8.10;;;;;;;11.54;65.27;100045.25;10401989;28;20057;-82
2021/09/04 04:09:44;;;;;;;30.55;7.50;;;;;;;11.54;65.53;100045.25;10402413;28;20466;-83
2021/09/04 04:14:46;;;;;;;30.92;6.65;;;;;;;11.56;65.10;100040.75;10402503;28;20057;-82
2021/09/04 04:19:48;;;;;;;18.42;6.80;;;;;;;11.52;64.93;100040.09;10403357;28;20093;-82
2021/09/04 04:24:54;;;;;;;84.60;7.13;;;;;;;11.24;65.17;100051.41;10408428;28;20399;-82
2021/09/04 04:29:56;;;;;;;19.83;7.20;;;;;;;11.32;65.71;100047.50;10429828;28;20080;-83
2021/09/04 04:34:57;;;;;;;33.30;7.03;;;;;;;11.46;65.70;100052.75;10401377;28;20087;-82
2021/09/04 04:39:59;;;;;;;152.38;12.85;;;;;;;11.39;65.67;100054.03;10399301;28;20054;-83
2021/09/04 04:45:01;;;;;;;156.48;11.50;;;;;;;11.32;65.92;100061.41;10399085;28;20151;-83
2021/09/04 04:50:04;;;;;;;113.95;10.30;;;;;;;11.32;66.42;100057.97;10398795;28;20053;-83
2021/09/04 04:55:06;;;;;;;54.38;8.32;;;;;;;11.49;66.27;100057.78;10398558;28;20153;-83
2021/09/04 05:00:10;;;;;;;62.08;10.27;;;;;;;11.68;65.93;100055.72;10399999;28;20136;-83
2021/09/04 05:05:11;;;;;;;77.60;10.40;;;;;;;11.78;65.93;100073.41;10400190;28;20057;-83
2021/09/04 05:10:13;;;;;;;94.18;13.15;;;;;;;11.87;65.50;100075.41;10400152;28;20049;-83
2021/09/04 05:15:15;;;;;;;11.18;6.90;;;;;;;12.02;65.36;100073.63;10395899;28;20144;-82
2021/09/04 05:20:17;;;;;;;31.90;6.88;;;;;;;12.06;65.14;100068.09;10397784;28;20081;-83
2021/09/04 05:25:18;;;;;;;22.77;9.23;;;;;;;12.24;64.64;100068.69;10395199;28;20136;-82
2021/09/04 07:27:51;;;;;;;12.30;7.97;;;;;;;15.13;59.80;100067.44;10366740;28;20418;-79
2021/09/04 07:32:52;;;;;;;14.75;8.55;;;;;;;15.29;59.72;100070.56;10391850;28;20160;-80
2021/09/04 07:37:54;;;;;;;14.23;8.65;;;;;;;15.60;59.51;100071.72;10400048;28;20077;-80
2021/09/04 07:42:56;;;;;;;9.90;5.88;;;;;;;16.33;58.39;100061.41;10397778;28;20498;-80
2021/09/04 07:47:58;;;;;;;11.32;5.85;;;;;;;16.96;56.90;100064.03;10399977;28;20095;-80
2021/09/04 07:53:00;;;;;;;12.80;7.05;;;;;;;17.61;56.03;100064.56;10400073;28;20088;-80
2021/09/04 07:58:01;;;;;;;11.93;6.85;;;;;;;18.28;54.80;100059.50;10400207;28;20139;-80
2021/09/04 08:03:03;;;;;;;15.15;7.35;;;;;;;18.76;53.64;100064.84;10401887;28;20064;-80
2021/09/04 08:08:05;;;;;;;15.52;7.10;;;;;;;19.10;53.33;100058.13;10401892;28;20081;-81
2021/09/04 08:13:07;;;;;;;10.50;7.05;;;;;;;19.69;52.03;100048.97;10398922;28;21044;-81
2021/09/04 08:18:09;;;;;;;13.40;6.47;;;;;;;20.06;51.16;100048.00;10398720;28;20103;-81
2021/09/04 08:23:11;;;;;;;16.38;7.07;;;;;;;20.29;50.45;100048.41;10394460;28;20480;-80
2021/09/04 08:28:12;;;;;;;13.60;7.55;;;;;;;20.06;50.37;100052.44;10397738;28;20140;-81
2021/09/04 08:33:14;;;;;;;10.18;6.40;;;;;;;20.27;50.24;100045.88;10396870;28;20103;-81
2021/09/04 08:38:16;;;;;;;9.15;6.30;;;;;;;20.81;49.30;100044.06;10397105;28;20479;-80
2021/09/04 08:43:18;;;;;;;13.05;6.72;;;;;;;21.11;48.23;100045.47;10396952;28;20084;-80
2021/09/04 08:48:20;;;;;;;11.15;7.13;;;;;;;20.91;48.30;100056.28;10397012;28;20085;-81
2021/09/04 08:53:22;;;;;;;12.50;6.60;;;;;;;21.10;47.95;100055.28;10397551;28;20196;-80
2021/09/04 08:58:24;;;;;;;11.73;7.18;;;;;;;21.11;47.50;100048.13;10396739;28;20054;-80
2021/09/04 09:03:29;;;;;;;11.70;6.75;;;;;;;21.46;46.90;100050.69;10393187;28;20645;-80
2021/09/04 09:08:31;;;;;;;12.23;6.90;;;;;;;21.61;47.19;100049.13;10395329;28;20053;-80
2021/09/04 09:13:33;;;;;;;10.65;6.28;;;;;;;21.80;46.96;100047.03;10393717;28;20061;-80
2021/09/04 09:18:35;;;;;;;12.43;6.65;;;;;;;21.97;46.83;100045.28;10392461;28;21003;-81
2021/09/04 09:23:37;;;;;;;13.20;6.60;;;;;;;22.37;45.97;100040.06;10393647;28;20435;-80
2021/09/04 09:28:39;;;;;;;9.75;6.38;;;;;;;22.30;46.10;100038.22;10398500;28;20056;-81
2021/09/04 09:33:41;;;;;;;10.23;6.53;;;;;;;22.16;45.66;100028.22;10425760;28;20422;-81
2021/09/04 09:38:43;;;;;;;10.68;6.50;;;;;;;22.44;45.40;100022.44;10394247;28;20135;-81
2021/09/04 09:43:54;;;;;;;9.65;6.30;;;;;;;22.73;43.71;100008.66;10394390;28;20061;-81
2021/09/04 09:48:56;;;;;;;9.52;6.15;;;;;;;22.90;44.07;100010.31;10394360;28;20053;-81
2021/09/04 09:53:58;;;;;;;7.75;5.50;;;;;;;23.14;43.93;100014.75;10393949;28;20088;-81
2021/09/04 09:59:00;;;;;;;13.32;5.18;;;;;;;23.03;43.81;100007.94;10393372;28;20049;-82
2021/09/04 10:04:03;;;;;;;8.30;5.63;;;;;;;23.05;43.61;100005.94;10394113;28;20053;-81
2021/09/04 10:09:05;;;;;;;9.82;5.47;;;;;;;23.33;43.48;100014.41;10395852;28;20096;-82
2021/09/04 10:14:07;;;;;;;7.85;5.25;;;;;;;23.04;43.33;99996.28;10392044;28;20147;-81
2021/09/04 10:19:15;;;;;;;9.10;5.03;;;;;;;23.01;43.88;99999.28;10392739;28;20585;-81
2021/09/04 10:24:17;;;;;;;8.23;5.03;;;;;;;23.34;43.66;99994.69;10393089;28;20808;-81
2021/09/04 10:29:19;;;;;;;10.13;4.80;;;;;;;23.60;42.72;99981.94;10394100;28;20089;-80
2021/09/04 10:34:28;;;;;;;7.78;4.45;;;;;;;23.61;41.11;99988.13;10393685;28;20088;-81
2021/09/04 10:39:50;;;;;;;8.20;5.00;;;;;;;23.71;42.37;99986.06;10391845;28;20100;-81
2021/09/04 10:44:57;;;;;;;8.52;5.00;;;;;;;23.67;41.86;99979.41;10393092;28;20093;-81
2021/09/04 10:50:14;;;;;;;7.20;4.22;;;;;;;23.46;41.82;99970.16;10392501;28;20111;-81
2021/09/04 10:55:21;;;;;;;7.80;4.35;;;;;;;23.62;42.67;99968.41;10393569;28;20656;-81
2021/09/04 11:00:25;;;;;;;9.43;4.78;;;;;;;23.83;41.59;99965.97;10394831;28;20059;-81
2021/09/04 11:05:48;;;;;;;6.63;4.53;;;;;;;23.69;41.81;99964.91;10394475;28;20057;-80
2021/09/04 11:11:18;;;;;;;7.10;4.72;;;;;;;23.82;41.31;99954.47;10401911;28;20089;-81
2021/09/04 11:16:53;;;;;;;6.90;4.32;;;;;;;23.93;40.72;99948.72;10398843;28;20154;-81
2021/09/04 11:21:56;;;;;;;5.13;3.42;;;;;;;24.28;41.03;99948.19;10379167;28;20081;-80
2021/09/04 11:27:02;;;;;;;5.53;3.70;;;;;;;24.58;40.88;99946.41;10397057;28;20165;-81
2021/09/04 11:32:04;;;;;;;5.78;3.95;;;;;;;24.52;39.77;99932.94;10399606;28;20053;-81
2021/09/04 11:37:19;;;;;;;6.32;4.03;;;;;;;24.40;38.09;99931.69;10398957;28;20057;-81
2021/09/04 11:42:24;;;;;;;6.30;3.63;;;;;;;24.50;38.79;99934.97;10399772;28;20061;-80
2021/09/04 11:47:27;;;;;;;6.93;3.75;;;;;;;24.43;37.97;99920.66;10396693;28;20140;-84
2021/09/04 11:52:34;;;;;;;5.85;3.53;;;;;;;24.84;37.59;99922.78;10398805;28;20069;-81
2021/09/04 11:57:38;;;;;;;5.03;3.55;;;;;;;24.81;37.59;99919.66;10402189;28;20080;-81
2021/09/04 12:02:57;;;;;;;6.68;3.65;;;;;;;24.70;36.56;99925.41;10414749;28;20132;-81
2021/09/04 12:08:34;;;;;;;5.57;3.80;;;;;;;24.89;37.38;99924.91;10406695;28;20061;-81
2021/09/04 12:13:38;;;;;;;5.82;3.97;;;;;;;25.17;37.20;99920.56;10394841;28;20111;-81
2021/09/04 12:18:42;;;;;;;8.23;4.40;;;;;;;25.54;36.32;99909.78;10395759;28;20423;-80
2021/09/04 12:23:45;;;;;;;7.72;3.95;;;;;;;25.71;36.59;99916.53;10397245;28;20049;-81
2021/09/04 12:28:47;;;;;;;5.78;3.15;;;;;;;26.10;36.47;99926.06;10394820;28;20081;-81
2021/09/04 12:33:52;;;;;;;5.15;3.55;;;;;;;25.85;34.64;99912.19;10394757;28;20223;-81
2021/09/04 12:38:58;;;;;;;6.25;3.75;;;;;;;25.53;35.27;99902.72;10392922;28;20147;-81
2021/09/04 12:44:05;;;;;;;5.80;3.90;;;;;;;25.69;35.30;99901.69;10396063;28;20057;-81
2021/09/04 12:49:25;;;;;;;5.22;3.60;;;;;;;25.63;34.21;99903.25;10410431;28;20049;-81
2021/09/04 12:54:36;;;;;;;4.88;3.25;;;;;;;25.81;34.75;99901.00;10394473;28;20057;-81
2021/09/04 12:59:50;;;;;;;6.65;3.78;;;;;;;26.14;33.07;99895.97;10394407;28;20065;-81
2021/09/04 13:05:02;;;;;;;5.85;3.75;;;;;;;26.11;34.32;99896.38;10395092;28;20157;-81
2021/09/04 13:10:05;;;;;;;6.50;4.20;;;;;;;26.40;34.40;99890.88;10392897;28;20430;-81
2021/09/04 13:15:09;;;;;;;5.25;3.28;;;;;;;26.37;34.42;99887.72;10392958;28;20081;-80
2021/09/04 13:20:13;;;;;;;5.95;3.63;;;;;;;26.20;33.93;99883.69;10395809;28;20061;-80
2021/09/04 13:25:16;;;;;;;5.75;3.10;;;;;;;26.26;33.78;99877.56;10395613;28;20085;-80
2021/09/04 13:30:18;;;;;;;4.97;3.28;;;;;;;26.10;33.70;99880.50;10391610;28;20081;-80
2021/09/04 13:35:19;;;;;;;5.57;3.53;;;;;;;25.97;33.24;99878.53;10394945;28;20503;-80
2021/09/04 13:40:21;;;;;;;6.45;3.50;;;;;;;26.11;33.51;99876.78;10394538;28;20089;-80
2021/09/04 13:45:23;;;;;;;5.03;3.30;;;;;;;26.31;33.12;99875.09;10394800;28;20126;-80
2021/09/04 13:50:25;;;;;;;6.70;3.60;;;;;;;26.22;33.11;99873.59;10393765;28;20131;-80
2021/09/04 13:55:26;;;;;;;5.65;2.92;;;;;;;26.56;32.50;99861.13;10395171;28;20140;-80
2021/09/04 14:00:28;;;;;;;6.18;3.28;;;;;;;26.79;32.63;99863.53;10392926;28;20057;-80
2021/09/04 14:05:30;;;;;;;6.75;3.47;;;;;;;27.00;31.43;99857.22;10393704;28;20499;-81
2021/09/04 14:10:32;;;;;;;5.88;3.55;;;;;;;27.16;32.27;99855.06;10393371;28;20076;-81
2021/09/04 14:15:34;;;;;;;6.00;3.45;;;;;;;27.30;32.17;99842.53;10392973;28;20089;-80
2021/09/04 14:20:36;;;;;;;5.40;3.63;;;;;;;27.07;31.81;99856.25;10392591;28;20146;-80
2021/09/04 14:25:38;;;;;;;6.30;3.33;;;;;;;26.66;32.82;99841.97;10391809;28;20144;-80
2021/09/04 14:30:40;;;;;;;5.63;3.67;;;;;;;26.24;32.68;99840.19;10394802;28;20088;-80
2021/09/04 14:35:42;;;;;;;6.93;3.90;;;;;;;26.00;33.48;99845.97;10400314;28;20064;-80
2021/09/04 14:40:46;;;;;;;8.55;3.35;;;;;;;25.43;33.45;99845.13;10411490;28;20466;-80
2021/09/04 14:45:47;;;;;;;5.93;4.30;;;;;;;25.34;33.84;99849.81;10409536;28;20076;-80
2021/09/04 14:50:49;;;;;;;7.32;4.80;;;;;;;25.33;33.85;99848.09;10399303;28;20132;-80
2021/09/04 14:55:51;;;;;;;7.13;5.03;;;;;;;25.30;33.93;99848.47;10400755;28;20871;-80
2021/09/04 15:00:53;;;;;;;8.35;5.85;;;;;;;25.52;32.92;99841.34;10402198;28;20104;-80
2021/09/04 15:05:55;;;;;;;9.10;4.55;;;;;;;25.82;33.60;99833.00;10405555;28;20151;-80
2021/09/04 15:10:56;;;;;;;7.07;4.80;;;;;;;26.03;33.33;99836.72;10400198;28;20142;-80
2021/09/04 15:15:58;;;;;;;6.05;3.97;;;;;;;26.07;32.32;99830.78;10401300;28;20137;-80
2021/09/04 15:21:00;;;;;;;8.57;4.18;;;;;;;26.08;31.96;99826.25;10399468;28;20053;-81
2021/09/04 15:26:02;;;;;;;7.30;4.72;;;;;;;26.24;32.90;99828.66;10401247;28;20057;-80
2021/09/04 15:31:05;;;;;;;6.40;4.43;;;;;;;26.32;31.35;99834.69;10399357;28;20164;-80
2021/09/04 15:36:06;;;;;;;7.38;5.10;;;;;;;26.34;31.21;99835.34;10399905;28;20053;-81
2021/09/04 15:41:08;;;;;;;9.45;6.82;;;;;;;26.26;30.92;99830.09;10396917;28;20115;-81
2021/09/04 15:46:10;;;;;;;6.40;4.40;;;;;;;26.23;31.67;99835.03;10397592;28;20089;-80
2021/09/04 15:51:12;;;;;;;6.07;4.20;;;;;;;26.30;31.05;99831.38;10398407;28;20546;-80
2021/09/04 15:56:14;;;;;;;7.70;4.95;;;;;;;26.39;31.75;99821.31;10396137;28;20144;-81
2021/09/04 16:01:48;;;;;;;6.72;4.82;;;;;;;26.34;31.17;99821.09;10395003;28;20081;-81
2021/09/04 16:06:50;;;;;;;6.32;4.68;;;;;;;26.19;32.38;99823.03;10397558;28;20519;-81
2021/09/04 16:11:52;;;;;;;12.02;5.10;;;;;;;26.24;32.34;99816.06;10395015;28;20168;-81
2021/09/04 16:17:12;;;;;;;5.57;3.20;;;;;;;25.75;32.13;99807.19;10396523;28;20088;-81
2021/09/04 16:22:14;;;;;;;6.05;2.90;;;;;;;25.51;33.21;99805.69;10397481;28;20060;-81
2021/09/04 16:27:15;;;;;;;5.40;2.97;;;;;;;25.43;32.93;99811.16;10394713;28;20103;-81
2021/09/04 16:32:17;;;;;;;5.45;3.30;;;;;;;25.33;33.12;99815.13;10397327;28;20851;-81
2021/09/04 16:37:19;;;;;;;6.95;3.10;;;;;;;25.55;33.66;99811.50;10395298;28;21067;-81
2021/09/04 16:42:21;;;;;;;7.13;3.13;;;;;;;26.01;32.75;99812.78;10393241;28;20076;-81
2021/09/04 16:47:23;;;;;;;7.05;3.20;;;;;;;26.17;32.59;99809.00;10393485;28;20065;-81
2021/09/04 16:52:25;;;;;;;4.35;2.78;;;;;;;26.16;32.86;99810.84;10398562;28;20072;-81
2021/09/04 16:57:27;;;;;;;4.60;2.80;;;;;;;25.65;33.08;99815.50;10397840;28;20065;-81
2021/09/04 17:02:29;;;;;;;3.92;2.67;;;;;;;25.25;34.20;99812.56;10398323;28;20060;-81
2021/09/04 17:07:31;;;;;;;5.00;3.00;;;;;;;24.83;34.97;99815.97;10400484;28;20114;-81
2021/09/04 17:12:33;;;;;;;6.00;3.38;;;;;;;24.61;35.50;99817.69;10413694;28;20115;-80
2021/09/04 17:17:35;;;;;;;5.55;3.00;;;;;;;24.50;35.47;99815.47;10395325;28;20060;-81
2021/09/04 17:22:36;;;;;;;5.82;3.25;;;;;;;24.36;36.11;99818.13;10395142;28;20063;-81
2021/09/04 17:27:38;;;;;;;6.70;3.35;;;;;;;24.11;37.07;99813.03;10393488;28;20108;-81
2021/09/04 17:32:40;;;;;;;5.45;3.08;;;;;;;23.94;37.66;99816.81;10393155;28;20057;-81
2021/09/04 17:37:42;;;;;;;5.75;3.47;;;;;;;23.80;38.36;99822.13;10392068;28;20107;-81
2021/09/04 17:42:44;;;;;;;6.72;3.58;;;;;;;23.66;38.92;99830.88;10392580;28;20123;-80
2021/09/04 17:47:46;;;;;;;6.80;3.45;;;;;;;23.27;40.84;99829.09;10391063;28;20046;-80
2021/09/04 17:52:49;;;;;;;6.90;4.15;;;;;;;22.91;42.41;99835.09;10394389;28;20481;-81
2021/09/04 17:57:51;;;;;;;9.88;4.90;;;;;;;22.59;43.14;99833.34;10391336;28;20053;-80
2021/09/04 18:02:52;;;;;;;7.38;4.03;;;;;;;22.32;43.61;99842.56;10394286;28;20510;-80
2021/09/04 18:07:54;;;;;;;7.57;4.90;;;;;;;22.14;44.29;99855.25;10394270;28;20053;-80
2021/09/04 18:12:56;;;;;;;10.20;5.00;;;;;;;21.95;44.78;99860.84;10393483;28;20053;-80
2021/09/04 18:17:58;;;;;;;11.15;8.27;;;;;;;21.69;45.44;99865.50;10393072;28;20096;-80
2021/09/04 18:23:00;;;;;;;11.68;7.68;;;;;;;21.48;45.98;99889.06;10391493;28;20089;-80
2021/09/04 18:28:02;;;;;;;8.85;6.15;;;;;;;21.13;47.23;99895.38;10390900;28;20204;-80
2021/09/04 18:33:04;;;;;;;9.40;6.35;;;;;;;21.02;47.66;99906.31;10392580;28;20147;-80
2021/09/04 18:38:06;;;;;;;7.95;6.03;;;;;;;20.80;48.33;99914.84;10392002;28;20088;-80
2021/09/04 18:43:08;;;;;;;9.63;6.00;;;;;;;20.63;49.08;99924.53;10392515;28;20141;-80
2021/09/04 18:48:10;;;;;;;13.18;6.00;;;;;;;20.47;49.52;99928.84;10387831;28;20166;-80
2021/09/04 18:53:12;;;;;;;8.35;6.00;;;;;;;20.03;50.35;99942.06;10393419;28;20495;-80
2021/09/04 18:58:13;;;;;;;9.18;6.60;;;;;;;19.82;51.21;99940.72;10391032;28;20558;-79
2021/09/04 19:03:15;;;;;;;10.45;8.35;;;;;;;19.76;51.46;99943.94;10391448;28;20143;-79
2021/09/04 19:08:21;;;;;;;8.85;7.18;;;;;;;19.68;51.89;99943.84;10385482;28;20104;-79
2021/09/04 19:13:23;;;;;;;11.07;6.90;;;;;;;19.59;52.13;99952.69;10387646;28;20112;-79
2021/09/04 19:18:24;;;;;;;11.70;7.22;;;;;;;19.23;53.28;99957.91;10390160;28;20092;-79
2021/09/04 19:23:26;;;;;;;8.55;6.50;;;;;;;19.16;53.53;99962.09;10390331;28;20089;-79
2021/09/04 19:28:28;;;;;;;10.90;7.97;;;;;;;18.98;54.24;99962.97;10397781;28;20057;-79
2021/09/04 19:33:33;;;;;;;9.77;7.47;;;;;;;18.82;55.08;99973.31;10398275;28;20127;-79
2021/09/04 19:38:35;;;;;;;10.73;7.70;;;;;;;18.58;55.59;99987.03;10404378;28;20092;-79
2021/09/04 19:43:37;;;;;;;12.45;8.05;;;;;;;18.59;55.66;99996.66;10413150;28;20065;-79
2021/09/04 19:48:39;;;;;;;11.05;8.10;;;;;;;18.50;55.93;99995.66;10404089;28;20068;-79
2021/09/04 19:53:41;;;;;;;12.55;8.52;;;;;;;18.40;56.36;100005.44;10397089;28;20054;-79
2021/09/04 19:58:42;;;;;;;13.60;9.35;;;;;;;18.25;56.50;100008.66;10396803;28;20111;-79
2021/09/04 20:03:44;;;;;;;13.02;8.85;;;;;;;17.97;56.99;100023.50;10395667;28;20072;-79
2021/09/04 20:08:46;;;;;;;12.00;8.60;;;;;;;17.81;57.35;100036.41;10395450;28;20049;-79
2021/09/04 20:13:48;;;;;;;12.70;8.15;;;;;;;17.90;57.36;100035.56;10395044;28;20065;-79
2021/09/04 20:18:50;;;;;;;12.93;8.98;;;;;;;17.86;57.70;100044.75;10394983;28;20586;-79
2021/09/04 20:23:52;;;;;;;18.40;13.00;;;;;;;17.60;58.15;100047.03;10396000;28;20096;-79
2021/09/04 20:28:53;;;;;;;12.73;8.73;;;;;;;17.57;58.50;100052.59;10394600;28;20053;-79
2021/09/04 20:33:56;;;;;;;11.93;8.10;;;;;;;17.57;58.51;100055.22;10396537;28;20061;-79
2021/09/04 20:44:36;;;;;;;13.98;8.90;;;;;;;17.58;58.76;100072.78;10379606;28;20093;-79
2021/09/04 20:49:42;;;;;;;11.93;9.40;;;;;;;17.34;58.66;100066.97;10393240;28;20863;-79
2021/09/04 20:54:44;;;;;;;14.60;10.05;;;;;;;17.17;59.44;100074.59;10395647;28;20119;-79
2021/09/04 20:59:45;;;;;;;12.32;9.40;;;;;;;17.24;59.30;100081.88;10394490;28;20068;-79
2021/09/04 21:04:48;;;;;;;12.48;9.70;;;;;;;17.13;59.12;100076.69;10394889;28;20136;-79
2021/09/04 21:09:49;;;;;;;15.32;8.73;;;;;;;17.25;58.77;100088.84;10395004;28;20119;-79
2021/09/04 21:14:53;;;;;;;15.48;8.50;;;;;;;17.21;58.22;100092.72;10395096;28;20348;-80
2021/09/04 21:19:55;;;;;;;11.35;8.73;;;;;;;17.10;58.36;100089.31;10390393;28;20585;-81
2021/09/04 21:24:56;;;;;;;11.10;8.75;;;;;;;17.11;58.52;100081.25;10394688;28;20088;-81
2021/09/04 21:29:58;;;;;;;12.88;9.52;;;;;;;16.98;58.60;100077.97;10392416;28;20972;-81
2021/09/04 21:35:00;;;;;;;11.40;8.25;;;;;;;17.06;58.83;100083.44;10395342;28;20671;-82
2021/09/04 21:40:03;;;;;;;16.85;9.93;;;;;;;17.06;58.79;100094.00;10394938;28;20072;-81
2021/09/04 21:45:08;;;;;;;12.57;8.27;;;;;;;16.95;59.11;100096.72;10394116;28;20060;-82
2021/09/04 21:50:10;;;;;;;13.85;8.15;;;;;;;16.94;59.30;100098.53;10389365;28;20072;-82
2021/09/04 21:55:12;;;;;;;9.60;7.90;;;;;;;17.00;59.03;100099.81;10389630;28;20101;-81
2021/09/04 22:00:18;;;;;;;12.93;8.70;;;;;;;16.92;59.15;100096.97;10397078;28;20053;-81
2021/09/04 22:05:20;;;;;;;9.65;8.35;;;;;;;16.92;59.28;100097.81;10393103;28;20049;-81
2021/09/04 22:10:22;;;;;;;12.63;8.23;;;;;;;16.96;59.48;100098.38;10402288;28;20093;-81
2021/09/04 22:15:24;;;;;;;9.88;7.88;;;;;;;16.96;59.44;100104.50;10418786;28;20091;-81
2021/09/04 22:20:29;;;;;;;10.85;8.55;;;;;;;16.91;58.91;100108.50;10407562;28;20093;-81
2021/09/04 22:25:33;;;;;;;11.77;9.73;;;;;;;16.70;59.29;100111.13;10394929;28;20092;-81
2021/09/04 22:30:35;;;;;;;15.35;9.57;;;;;;;16.58;59.83;100113.91;10395778;28;20049;-81
2021/09/04 22:35:38;;;;;;;13.77;8.25;;;;;;;16.45;60.54;100126.44;10393554;28;20096;-81
2021/09/04 22:40:46;;;;;;;12.38;8.68;;;;;;;16.47;60.70;100127.19;10392928;28;20054;-80
2021/09/04 22:45:50;;;;;;;13.77;8.52;;;;;;;16.42;60.45;100124.88;10393209;28;20058;-81
2021/09/04 22:50:52;;;;;;;12.23;8.25;;;;;;;16.37;60.31;100136.72;10392514;28;20053;-81
2021/09/04 22:55:54;;;;;;;13.30;10.23;;;;;;;16.27;60.55;100131.38;10393830;28;20096;-81
2021/09/04 23:00:55;;;;;;;13.82;9.98;;;;;;;16.10;61.16;100131.88;10393839;28;20081;-82
2021/09/04 23:05:57;;;;;;;13.35;10.20;;;;;;;15.98;61.51;100140.75;10400196;28;20140;-81
2021/09/04 23:10:59;;;;;;;12.82;10.50;;;;;;;16.06;61.17;100148.91;10400345;28;20053;-82
2021/09/04 23:16:02;;;;;;;12.95;9.70;;;;;;;16.14;61.24;100147.31;10400876;28;20132;-82
2021/09/04 23:21:03;;;;;;;13.35;9.85;;;;;;;16.18;61.06;100145.31;10400509;28;20129;-81
2021/09/04 23:26:05;;;;;;;14.85;8.75;;;;;;;16.13;61.15;100150.94;10399851;28;20140;-82
2021/09/04 23:31:07;;;;;;;11.75;9.07;;;;;;;16.00;61.12;100149.38;10399569;28;20108;-82
2021/09/04 23:36:09;;;;;;;12.25;9.30;;;;;;;15.92;61.62;100152.63;10399930;28;20099;-82
2021/09/04 23:41:11;;;;;;;14.18;10.50;;;;;;;15.79;61.31;100153.72;10401895;28;20049;-82
2021/09/04 23:46:13;;;;;;;16.38;9.52;;;;;;;15.35;62.50;100157.06;10401452;28;20755;-82
2021/09/04 23:51:15;;;;;;;13.65;10.95;;;;;;;15.33;62.66;100153.72;10399782;28;20049;-82
2021/09/04 23:56:17;;;;;;;14.40;10.23;;;;;;;15.41;62.47;100154.81;10400694;28;20115;-81
